sensor_id;sensor_type;location;lat;lon;timestamp;pressure;altitude;pressure_sealevel;temperature;humidity
4705;BME280;2366;51.332;6.610;2023-02-28T00:00:11;102875.34;;;4.01;55.97
4705;BME280;2366;51.332;6.610;2023-02-28T00:02:41;102871.84;;;3.96;56.62
4705;BME280;2366;51.332;6.610;2023-02-28T00:05:08;102877.97;;;3.95;56.68
4705;BME280;2366;51.332;6.610;2023-02-28T00:07:34;102864.84;;;3.94;56.95
4705;BME280;2366;51.332;6.610;2023-02-28T00:10:00;102869.19;;;3.85;56.39
4705;BME280;2366;51.332;6.610;2023-02-28T00:12:26;102866.56;;;3.85;57.26
4705;BME280;2366;51.332;6.610;2023-02-28T00:14:51;102870.09;;;3.90;57.70
4705;BME280;2366;51.332;6.610;2023-02-28T00:17:17;102859.59;;;3.90;57.66
4705;BME280;2366;51.332;6.610;2023-02-28T00:19:50;102862.22;;;3.90;57.32
4705;BME280;2366;51.332;6.610;2023-02-28T00:22:17;102863.94;;;3.90;58.07
4705;BME280;2366;51.332;6.610;2023-02-28T00:24:44;102866.59;;;3.87;57.73
4705;BME280;2366;51.332;6.610;2023-02-28T00:27:09;102872.72;;;3.89;57.60
4705;BME280;2366;51.332;6.610;2023-02-28T00:29:35;102874.47;;;3.93;57.81
4705;BME280;2366;51.332;6.610;2023-02-28T00:32:01;102870.09;;;3.90;57.89
4705;BME280;2366;51.332;6.610;2023-02-28T00:34:26;102865.72;;;3.91;57.72
4705;BME280;2366;51.332;6.610;2023-02-28T00:36:51;102874.47;;;3.87;57.58
4705;BME280;2366;51.332;6.610;2023-02-28T00:39:17;102866.56;;;3.85;57.64
4705;BME280;2366;51.332;6.610;2023-02-28T00:41:42;102874.47;;;3.82;57.39
4705;BME280;2366;51.332;6.610;2023-02-28T00:44:07;102875.31;;;3.86;56.92
4705;BME280;2366;51.332;6.610;2023-02-28T00:46:33;102877.06;;;3.85;57.21
4705;BME280;2366;51.332;6.610;2023-02-28T00:48:58;102872.69;;;3.87;56.75
4705;BME280;2366;51.332;6.610;2023-02-28T00:51:23;102868.34;;;3.91;56.59
4705;BME280;2366;51.332;6.610;2023-02-28T00:53:49;102877.97;;;3.94;56.61
4705;BME280;2366;51.332;6.610;2023-02-28T00:56:14;102875.34;;;3.90;56.36
4705;BME280;2366;51.332;6.610;2023-02-28T00:58:40;102875.31;;;3.92;56.55
4705;BME280;2366;51.332;6.610;2023-02-28T01:01:06;102876.22;;;3.85;56.44
4705;BME280;2366;51.332;6.610;2023-02-28T01:03:31;102876.19;;;3.74;56.99
4705;BME280;2366;51.332;6.610;2023-02-28T01:05:57;102872.69;;;3.74;56.75
4705;BME280;2366;51.332;6.610;2023-02-28T01:08:23;102877.94;;;3.67;56.77
4705;BME280;2366;51.332;6.610;2023-02-28T01:10:48;102878.78;;;3.59;56.48
4705;BME280;2366;51.332;6.610;2023-02-28T01:13:15;102883.16;;;3.52;57.36
4705;BME280;2366;51.332;6.610;2023-02-28T01:15:45;102878.78;;;3.45;57.61
4705;BME280;2366;51.332;6.610;2023-02-28T01:18:11;102879.63;;;3.45;57.77
4705;BME280;2366;51.332;6.610;2023-02-28T01:20:37;102886.63;;;3.48;57.84
4705;BME280;2366;51.332;6.610;2023-02-28T01:23:02;102889.25;;;3.43;57.64
4705;BME280;2366;51.332;6.610;2023-02-28T01:27:58;102886.59;;;3.40;57.94
4705;BME280;2366;51.332;6.610;2023-02-28T01:30:23;102880.50;;;3.43;57.99
4705;BME280;2366;51.332;6.610;2023-02-28T01:32:49;102874.38;;;3.42;58.13
4705;BME280;2366;51.332;6.610;2023-02-28T01:35:16;102883.13;;;3.37;58.36
4705;BME280;2366;51.332;6.610;2023-02-28T01:37:41;102878.72;;;3.33;58.59
4705;BME280;2366;51.332;6.610;2023-02-28T01:40:07;102883.09;;;3.31;58.64
4705;BME280;2366;51.332;6.610;2023-02-28T01:42:33;102883.94;;;3.25;58.77
4705;BME280;2366;51.332;6.610;2023-02-28T01:45:27;102882.19;;;3.22;59.32
4705;BME280;2366;51.332;6.610;2023-02-28T01:48:02;102882.16;;;3.21;59.13
4705;BME280;2366;51.332;6.610;2023-02-28T01:50:32;102875.19;;;3.20;58.82
4705;BME280;2366;51.332;6.610;2023-02-28T01:53:03;102874.31;;;3.15;59.31
4705;BME280;2366;51.332;6.610;2023-02-28T01:55:30;102873.41;;;3.08;59.25
4705;BME280;2366;51.332;6.610;2023-02-28T01:57:59;102868.13;;;3.05;60.11
4705;BME280;2366;51.332;6.610;2023-02-28T02:00:28;102866.41;;;3.04;59.68
4705;BME280;2366;51.332;6.610;2023-02-28T02:02:58;102864.66;;;3.06;60.26
4705;BME280;2366;51.332;6.610;2023-02-28T02:05:27;102867.28;;;3.06;59.52
4705;BME280;2366;51.332;6.610;2023-02-28T02:08:14;102863.75;;;3.05;59.99
4705;BME280;2366;51.332;6.610;2023-02-28T02:10:52;102855.91;;;3.02;59.83
4705;BME280;2366;51.332;6.610;2023-02-28T02:24:50;102861.13;;;2.98;60.06
4705;BME280;2366;51.332;6.610;2023-02-28T02:30:17;102849.72;;;2.86;60.73
4705;BME280;2366;51.332;6.610;2023-02-28T02:38:10;102854.97;;;2.90;60.61
4705;BME280;2366;51.332;6.610;2023-02-28T02:40:58;102851.47;;;2.84;61.06
4705;BME280;2366;51.332;6.610;2023-02-28T02:43:36;102847.06;;;2.79;61.11
4705;BME280;2366;51.332;6.610;2023-02-28T02:46:12;102842.69;;;2.79;60.73
4705;BME280;2366;51.332;6.610;2023-02-28T02:48:42;102845.31;;;2.79;61.29
4705;BME280;2366;51.332;6.610;2023-02-28T02:51:14;102854.00;;;2.69;60.71
4705;BME280;2366;51.332;6.610;2023-02-28T02:53:45;102845.25;;;2.62;60.75
4705;BME280;2366;51.332;6.610;2023-02-28T02:56:15;102847.78;;;2.55;61.05
4705;BME280;2366;51.332;6.610;2023-02-28T02:58:43;102846.88;;;2.43;61.18
4705;BME280;2366;51.332;6.610;2023-02-28T03:01:17;102842.44;;;2.33;60.84
4705;BME280;2366;51.332;6.610;2023-02-28T03:04:00;102845.84;;;2.23;61.29
4705;BME280;2366;51.332;6.610;2023-02-28T03:06:26;102841.44;;;2.16;61.62
4705;BME280;2366;51.332;6.610;2023-02-28T03:08:52;102839.69;;;2.13;61.64
4705;BME280;2366;51.332;6.610;2023-02-28T03:11:17;102841.38;;;2.07;61.98
4705;BME280;2366;51.332;6.610;2023-02-28T03:14:15;102847.41;;;1.98;61.83
4705;BME280;2366;51.332;6.610;2023-02-28T03:19:33;102841.16;;;1.80;62.06
4705;BME280;2366;51.332;6.610;2023-02-28T03:24:50;102845.34;;;1.61;62.30
4705;BME280;2366;51.332;6.610;2023-02-28T03:27:41;102840.09;;;1.58;62.83
4705;BME280;2366;51.332;6.610;2023-02-28T03:30:50;102844.47;;;1.61;62.96
4705;BME280;2366;51.332;6.610;2023-02-28T03:33:38;102847.13;;;1.69;63.50
4705;BME280;2366;51.332;6.610;2023-02-28T03:36:18;102846.28;;;1.70;63.49
4705;BME280;2366;51.332;6.610;2023-02-28T03:38:58;102853.28;;;1.72;63.64
4705;BME280;2366;51.332;6.610;2023-02-28T03:41:38;102845.47;;;1.74;63.54
4705;BME280;2366;51.332;6.610;2023-02-28T03:44:12;102848.97;;;1.76;64.15
4705;BME280;2366;51.332;6.610;2023-02-28T03:46:45;102855.13;;;1.82;63.65
4705;BME280;2366;51.332;6.610;2023-02-28T03:49:22;102850.81;;;1.88;63.60
4705;BME280;2366;51.332;6.610;2023-02-28T03:51:50;102856.94;;;1.93;63.60
4705;BME280;2366;51.332;6.610;2023-02-28T03:54:20;102860.44;;;1.95;63.59
4705;BME280;2366;51.332;6.610;2023-02-28T03:56:57;102851.78;;;2.00;63.72
4705;BME280;2366;51.332;6.610;2023-02-28T03:59:39;102848.34;;;2.06;63.17
4705;BME280;2366;51.332;6.610;2023-02-28T04:02:07;102859.69;;;2.07;62.96
4705;BME280;2366;51.332;6.610;2023-02-28T04:04:33;102865.78;;;2.07;62.76
4705;BME280;2366;51.332;6.610;2023-02-28T04:07:07;102860.56;;;2.07;62.43
4705;BME280;2366;51.332;6.610;2023-02-28T04:09:32;102858.84;;;2.11;62.96
4705;BME280;2366;51.332;6.610;2023-02-28T04:11:58;102865.00;;;2.19;61.88
4705;BME280;2366;51.332;6.610;2023-02-28T04:14:23;102857.22;;;2.23;61.80
4705;BME280;2366;51.332;6.610;2023-02-28T04:16:49;102866.78;;;2.21;61.73
4705;BME280;2366;51.332;6.610;2023-02-28T04:19:16;102865.06;;;2.23;61.12
4705;BME280;2366;51.332;6.610;2023-02-28T04:21:44;102863.38;;;2.30;60.63
4705;BME280;2366;51.332;6.610;2023-02-28T04:24:18;102868.59;;;2.30;60.48
4705;BME280;2366;51.332;6.610;2023-02-28T04:26:52;102862.50;;;2.36;60.33
4705;BME280;2366;51.332;6.610;2023-02-28T04:29:27;102859.91;;;2.37;59.72
4705;BME280;2366;51.332;6.610;2023-02-28T04:31:53;102860.75;;;2.36;59.40
4705;BME280;2366;51.332;6.610;2023-02-28T04:34:20;102859.91;;;2.40;59.47
4705;BME280;2366;51.332;6.610;2023-02-28T04:36:46;102860.81;;;2.39;58.86
4705;BME280;2366;51.332;6.610;2023-02-28T04:39:14;102862.50;;;2.36;59.00
4705;BME280;2366;51.332;6.610;2023-02-28T04:41:40;102866.03;;;2.38;58.68
4705;BME280;2366;51.332;6.610;2023-02-28T04:44:05;102866.88;;;2.38;59.04
4705;BME280;2366;51.332;6.610;2023-02-28T04:46:31;102866.88;;;2.35;58.21
4705;BME280;2366;51.332;6.610;2023-02-28T04:48:56;102869.50;;;2.35;58.79
4705;BME280;2366;51.332;6.610;2023-02-28T04:51:22;102867.78;;;2.37;58.33
4705;BME280;2366;51.332;6.610;2023-02-28T04:53:48;102874.78;;;2.41;58.39
4705;BME280;2366;51.332;6.610;2023-02-28T04:56:16;102873.00;;;2.40;57.97
4705;BME280;2366;51.332;6.610;2023-02-28T04:58:42;102872.13;;;2.35;58.24
4705;BME280;2366;51.332;6.610;2023-02-28T05:03:44;102870.38;;;2.34;57.81
4705;BME280;2366;51.332;6.610;2023-02-28T05:06:11;102865.06;;;2.25;58.56
4705;BME280;2366;51.332;6.610;2023-02-28T05:08:37;102863.31;;;2.24;58.40
4705;BME280;2366;51.332;6.610;2023-02-28T05:11:03;102865.91;;;2.22;58.41
4705;BME280;2366;51.332;6.610;2023-02-28T05:13:29;102870.25;;;2.20;58.61
4705;BME280;2366;51.332;6.610;2023-02-28T05:15:55;102868.56;;;2.24;58.32
4705;BME280;2366;51.332;6.610;2023-02-28T05:18:20;102866.78;;;2.23;58.25
4705;BME280;2366;51.332;6.610;2023-02-28T05:20:46;102871.16;;;2.25;58.08
4705;BME280;2366;51.332;6.610;2023-02-28T05:23:13;102871.16;;;2.25;58.03
4705;BME280;2366;51.332;6.610;2023-02-28T05:25:39;102877.31;;;2.29;57.76
4705;BME280;2366;51.332;6.610;2023-02-28T05:28:06;102875.56;;;2.30;57.88
4705;BME280;2366;51.332;6.610;2023-02-28T05:30:31;102881.69;;;2.32;57.50
4705;BME280;2366;51.332;6.610;2023-02-28T05:32:57;102881.69;;;2.30;57.33
4705;BME280;2366;51.332;6.610;2023-02-28T05:35:23;102879.91;;;2.26;57.30
4705;BME280;2366;51.332;6.610;2023-02-28T05:37:49;102882.59;;;2.32;56.94
4705;BME280;2366;51.332;6.610;2023-02-28T05:40:14;102878.22;;;2.34;57.03
4705;BME280;2366;51.332;6.610;2023-02-28T05:42:40;102885.22;;;2.38;56.59
4705;BME280;2366;51.332;6.610;2023-02-28T05:45:06;102886.97;;;2.38;56.77
4705;BME280;2366;51.332;6.610;2023-02-28T05:47:32;102888.69;;;2.33;56.18
4705;BME280;2366;51.332;6.610;2023-02-28T05:49:58;102887.78;;;2.26;56.47
4705;BME280;2366;51.332;6.610;2023-02-28T05:52:23;102887.72;;;2.23;56.95
4705;BME280;2366;51.332;6.610;2023-02-28T05:54:49;102893.84;;;2.22;56.92
4705;BME280;2366;51.332;6.610;2023-02-28T05:57:14;102893.81;;;2.20;56.59
4705;BME280;2366;51.332;6.610;2023-02-28T05:59:40;102885.06;;;2.17;56.89
4705;BME280;2366;51.332;6.610;2023-02-28T06:02:11;102888.56;;;2.19;56.63
4705;BME280;2366;51.332;6.610;2023-02-28T06:04:37;102891.19;;;2.19;56.66
4705;BME280;2366;51.332;6.610;2023-02-28T06:07:02;102896.41;;;2.19;56.12
4705;BME280;2366;51.332;6.610;2023-02-28T06:09:28;102897.28;;;2.18;56.89
4705;BME280;2366;51.332;6.610;2023-02-28T06:11:54;102902.53;;;2.15;56.60
4705;BME280;2366;51.332;6.610;2023-02-28T06:14:20;102910.38;;;2.15;56.52
4705;BME280;2366;51.332;6.610;2023-02-28T06:16:46;102902.50;;;2.13;56.80
4705;BME280;2366;51.332;6.610;2023-02-28T06:19:12;102906.88;;;2.19;56.78
4705;BME280;2366;51.332;6.610;2023-02-28T06:21:38;102911.31;;;2.21;56.33
4705;BME280;2366;51.332;6.610;2023-02-28T06:24:04;102919.13;;;2.23;56.31
4705;BME280;2366;51.332;6.610;2023-02-28T06:26:30;102913.91;;;2.23;56.16
4705;BME280;2366;51.332;6.610;2023-02-28T06:28:56;102920.06;;;2.26;56.36
4705;BME280;2366;51.332;6.610;2023-02-28T06:31:21;102920.06;;;2.30;56.46
4705;BME280;2366;51.332;6.610;2023-02-28T06:33:48;102919.19;;;2.29;56.08
4705;BME280;2366;51.332;6.610;2023-02-28T06:36:15;102923.59;;;2.33;56.26
4705;BME280;2366;51.332;6.610;2023-02-28T06:38:41;102921.97;;;2.49;55.76
4705;BME280;2366;51.332;6.610;2023-02-28T06:41:08;102925.47;;;2.51;55.52
4705;BME280;2366;51.332;6.610;2023-02-28T06:43:36;102920.31;;;2.59;55.21
4705;BME280;2366;51.332;6.610;2023-02-28T06:46:05;102922.94;;;2.63;55.06
4705;BME280;2366;51.332;6.610;2023-02-28T06:48:31;102919.41;;;2.60;54.97
4705;BME280;2366;51.332;6.610;2023-02-28T06:53:28;102936.91;;;2.64;54.84
4705;BME280;2366;51.332;6.610;2023-02-28T06:55:54;102945.72;;;2.75;54.13
4705;BME280;2366;51.332;6.610;2023-02-28T06:58:19;102935.28;;;2.81;53.22
4705;BME280;2366;51.332;6.610;2023-02-28T07:00:50;102935.50;;;3.21;52.46
4705;BME280;2366;51.332;6.610;2023-02-28T07:03:16;102937.44;;;3.90;50.64
4705;BME280;2366;51.332;6.610;2023-02-28T07:05:43;102931.38;;;4.56;49.00
4705;BME280;2366;51.332;6.610;2023-02-28T07:08:08;102938.22;;;5.17;47.43
4705;BME280;2366;51.332;6.610;2023-02-28T07:10:34;102940.56;;;5.76;46.01
4705;BME280;2366;51.332;6.610;2023-02-28T07:13:03;102944.22;;;6.70;43.73
4705;BME280;2366;51.332;6.610;2023-02-28T07:15:28;102944.34;;;8.03;41.86
4705;BME280;2366;51.332;6.610;2023-02-28T07:17:54;102949.31;;;9.19;39.27
4705;BME280;2366;51.332;6.610;2023-02-28T07:20:19;102948.88;;;9.81;37.09
4705;BME280;2366;51.332;6.610;2023-02-28T07:22:45;102944.78;;;10.43;36.25
4705;BME280;2366;51.332;6.610;2023-02-28T07:25:10;102954.91;;;10.96;34.44
4705;BME280;2366;51.332;6.610;2023-02-28T07:27:35;102948.47;;;11.04;34.01
4705;BME280;2366;51.332;6.610;2023-02-28T07:30:01;102939.84;;;10.29;34.36
4705;BME280;2366;51.332;6.610;2023-02-28T07:32:28;102946.66;;;10.02;35.01
4705;BME280;2366;51.332;6.610;2023-02-28T07:34:54;102947.97;;;10.21;33.99
4705;BME280;2366;51.332;6.610;2023-02-28T07:37:19;102952.53;;;10.85;33.42
4705;BME280;2366;51.332;6.610;2023-02-28T07:39:45;102946.34;;;12.05;31.84
4705;BME280;2366;51.332;6.610;2023-02-28T07:42:10;102956.78;;;12.38;30.48
4705;BME280;2366;51.332;6.610;2023-02-28T07:44:38;102959.03;;;12.50;30.04
4705;BME280;2366;51.332;6.610;2023-02-28T07:47:07;102949.84;;;13.34;29.90
4705;BME280;2366;51.332;6.610;2023-02-28T07:49:34;102953.47;;;13.55;28.71
4705;BME280;2366;51.332;6.610;2023-02-28T07:51:59;102954.25;;;13.35;28.31
4705;BME280;2366;51.332;6.610;2023-02-28T07:54:24;102953.47;;;13.31;28.59
4705;BME280;2366;51.332;6.610;2023-02-28T07:56:50;102962.56;;;13.73;27.93
4705;BME280;2366;51.332;6.610;2023-02-28T07:59:15;102953.88;;;13.44;27.81
4705;BME280;2366;51.332;6.610;2023-02-28T08:01:40;102958.44;;;12.92;29.21
4705;BME280;2366;51.332;6.610;2023-02-28T08:04:06;102957.75;;;12.87;29.03
4705;BME280;2366;51.332;6.610;2023-02-28T08:06:31;102968.59;;;13.54;28.25
4705;BME280;2366;51.332;6.610;2023-02-28T08:08:57;102969.22;;;14.49;27.23
4705;BME280;2366;51.332;6.610;2023-02-28T08:11:22;102964.72;;;14.92;26.00
4705;BME280;2366;51.332;6.610;2023-02-28T08:13:48;102963.31;;;15.81;25.04
4705;BME280;2366;51.332;6.610;2023-02-28T08:16:14;102956.88;;;15.67;24.50
4705;BME280;2366;51.332;6.610;2023-02-28T08:18:47;102966.41;;;15.53;24.68
4705;BME280;2366;51.332;6.610;2023-02-28T08:21:13;102971.19;;;15.85;24.09
4705;BME280;2366;51.332;6.610;2023-02-28T08:23:38;102960.66;;;16.18;23.34
4705;BME280;2366;51.332;6.610;2023-02-28T08:26:04;102969.25;;;16.59;23.28
4705;BME280;2366;51.332;6.610;2023-02-28T08:28:29;102964.72;;;17.12;22.77
4705;BME280;2366;51.332;6.610;2023-02-28T08:30:55;102961.53;;;18.02;21.78
4705;BME280;2366;51.332;6.610;2023-02-28T08:33:20;102970.44;;;17.55;21.52
4705;BME280;2366;51.332;6.610;2023-02-28T08:35:46;102970.72;;;17.82;21.57
4705;BME280;2366;51.332;6.610;2023-02-28T08:38:11;102967.94;;;18.00;21.17
4705;BME280;2366;51.332;6.610;2023-02-28T08:40:37;102964.69;;;18.25;21.29
4705;BME280;2366;51.332;6.610;2023-02-28T08:43:02;102969.06;;;18.12;20.94
4705;BME280;2366;51.332;6.610;2023-02-28T08:45:27;102971.34;;;17.88;21.32
4705;BME280;2366;51.332;6.610;2023-02-28T08:47:54;102967.47;;;18.23;20.78
4705;BME280;2366;51.332;6.610;2023-02-28T08:50:19;102960.53;;;17.72;20.77
4705;BME280;2366;51.332;6.610;2023-02-28T08:52:45;102970.53;;;17.20;21.41
4705;BME280;2366;51.332;6.610;2023-02-28T08:55:10;102965.00;;;16.73;21.55
4705;BME280;2366;51.332;6.610;2023-02-28T08:57:37;102961.19;;;16.07;22.08
4705;BME280;2366;51.332;6.610;2023-02-28T09:00:03;102960.06;;;15.75;22.63
4705;BME280;2366;51.332;6.610;2023-02-28T09:02:33;102954.38;;;16.00;22.53
4705;BME280;2366;51.332;6.610;2023-02-28T09:04:58;102953.59;;;16.87;21.71
4705;BME280;2366;51.332;6.610;2023-02-28T09:07:24;102955.31;;;16.70;21.62
4705;BME280;2366;51.332;6.610;2023-02-28T09:09:49;102940.66;;;16.25;21.54
4705;BME280;2366;51.332;6.610;2023-02-28T09:12:26;102957.53;;;16.45;21.57
4705;BME280;2366;51.332;6.610;2023-02-28T09:14:52;102948.50;;;16.98;21.54
4705;BME280;2366;51.332;6.610;2023-02-28T09:17:18;102947.09;;;16.73;21.33
4705;BME280;2366;51.332;6.610;2023-02-28T09:19:43;102952.47;;;16.91;21.65
4705;BME280;2366;51.332;6.610;2023-02-28T09:22:10;102935.38;;;16.58;21.46
4705;BME280;2366;51.332;6.610;2023-02-28T09:24:37;102946.28;;;17.06;21.23
4705;BME280;2366;51.332;6.610;2023-02-28T09:27:03;102941.63;;;16.94;20.67
4705;BME280;2366;51.332;6.610;2023-02-28T09:29:28;102945.53;;;16.69;21.21
4705;BME280;2366;51.332;6.610;2023-02-28T09:31:54;102937.78;;;16.98;20.36
4705;BME280;2366;51.332;6.610;2023-02-28T09:34:21;102943.25;;;16.96;20.73
4705;BME280;2366;51.332;6.610;2023-02-28T09:36:46;102942.19;;;16.83;20.38
4705;BME280;2366;51.332;6.610;2023-02-28T09:39:12;102933.91;;;16.35;20.67
4705;BME280;2366;51.332;6.610;2023-02-28T09:41:42;102929.78;;;16.46;20.79
4705;BME280;2366;51.332;6.610;2023-02-28T09:44:36;102934.19;;;14.98;22.02
4705;BME280;2366;51.332;6.610;2023-02-28T09:47:26;102936.13;;;12.71;25.19
4705;BME280;2366;51.332;6.610;2023-02-28T09:49:52;102935.66;;;10.87;27.39
4705;BME280;2366;51.332;6.610;2023-02-28T09:52:27;102932.69;;;10.33;28.30
4705;BME280;2366;51.332;6.610;2023-02-28T09:54:54;102930.44;;;9.77;28.98
4705;BME280;2366;51.332;6.610;2023-02-28T09:57:32;102926.59;;;9.90;29.54
4705;BME280;2366;51.332;6.610;2023-02-28T10:00:03;102942.41;;;11.30;27.03
4705;BME280;2366;51.332;6.610;2023-02-28T10:05:27;102946.41;;;9.33;29.32
4705;BME280;2366;51.332;6.610;2023-02-28T10:08:13;102934.16;;;8.84;30.18
4705;BME280;2366;51.332;6.610;2023-02-28T10:10:42;102936.53;;;8.50;30.27
4705;BME280;2366;51.332;6.610;2023-02-28T10:15:47;102930.69;;;8.31;32.12
4705;BME280;2366;51.332;6.610;2023-02-28T10:18:21;102942.66;;;8.52;31.35
4705;BME280;2366;51.332;6.610;2023-02-28T10:20:48;102926.91;;;8.46;32.07
4705;BME280;2366;51.332;6.610;2023-02-28T10:23:35;102935.47;;;8.61;31.72
4705;BME280;2366;51.332;6.610;2023-02-28T10:26:12;102941.63;;;8.62;31.95
4705;BME280;2366;51.332;6.610;2023-02-28T10:28:38;102949.22;;;8.28;31.53
4705;BME280;2366;51.332;6.610;2023-02-28T10:31:04;102937.09;;;8.16;31.93
4705;BME280;2366;51.332;6.610;2023-02-28T10:33:32;102929.28;;;8.08;31.58
4705;BME280;2366;51.332;6.610;2023-02-28T10:35:59;102967.13;;;8.10;31.39
4705;BME280;2366;51.332;6.610;2023-02-28T10:38:38;102927.94;;;7.79;31.45
4705;BME280;2366;51.332;6.610;2023-02-28T10:41:30;102915.34;;;7.97;31.52
4705;BME280;2366;51.332;6.610;2023-02-28T10:44:22;102925.69;;;8.12;31.83
4705;BME280;2366;51.332;6.610;2023-02-28T10:46:49;102930.56;;;8.37;31.74
4705;BME280;2366;51.332;6.610;2023-02-28T10:49:24;102933.25;;;8.35;31.69
4705;BME280;2366;51.332;6.610;2023-02-28T10:51:53;102960.13;;;8.63;30.93
4705;BME280;2366;51.332;6.610;2023-02-28T10:54:34;102916.13;;;8.56;29.96
4705;BME280;2366;51.332;6.610;2023-02-28T10:57:19;102920.38;;;8.65;30.56
4705;BME280;2366;51.332;6.610;2023-02-28T10:59:46;102922.72;;;8.82;30.57
4705;BME280;2366;51.332;6.610;2023-02-28T11:02:32;102925.00;;;8.55;31.03
4705;BME280;2366;51.332;6.610;2023-02-28T11:04:57;102919.34;;;8.22;30.74
4705;BME280;2366;51.332;6.610;2023-02-28T11:07:25;102919.19;;;8.32;31.28
4705;BME280;2366;51.332;6.610;2023-02-28T11:09:56;102912.63;;;8.03;31.67
4705;BME280;2366;51.332;6.610;2023-02-28T11:12:23;102892.91;;;8.24;32.02
4705;BME280;2366;51.332;6.610;2023-02-28T11:17:53;102912.78;;;7.92;31.25
4705;BME280;2366;51.332;6.610;2023-02-28T11:20:25;102913.38;;;8.11;31.21
4705;BME280;2366;51.332;6.610;2023-02-28T11:22:53;102919.03;;;7.87;31.15
4705;BME280;2366;51.332;6.610;2023-02-28T11:25:25;102909.69;;;7.66;31.04
4705;BME280;2366;51.332;6.610;2023-02-28T11:27:59;102898.06;;;7.77;31.79
4705;BME280;2366;51.332;6.610;2023-02-28T11:30:39;102901.53;;;7.79;31.91
4705;BME280;2366;51.332;6.610;2023-02-28T11:35:49;102904.19;;;7.79;32.21
4705;BME280;2366;51.332;6.610;2023-02-28T11:38:15;102913.75;;;7.87;31.43
4705;BME280;2366;51.332;6.610;2023-02-28T11:40:49;102904.34;;;8.25;31.23
4705;BME280;2366;51.332;6.610;2023-02-28T11:43:26;102900.25;;;8.59;30.55
4705;BME280;2366;51.332;6.610;2023-02-28T11:48:57;102894.97;;;8.05;31.28
4705;BME280;2366;51.332;6.610;2023-02-28T11:51:34;102902.59;;;8.23;31.65
4705;BME280;2366;51.332;6.610;2023-02-28T11:54:23;102893.31;;;8.52;31.10
4705;BME280;2366;51.332;6.610;2023-02-28T11:56:55;102900.38;;;8.52;31.30
4705;BME280;2366;51.332;6.610;2023-02-28T12:02:05;102889.47;;;8.69;31.00
4705;BME280;2366;51.332;6.610;2023-02-28T12:07:20;102884.47;;;8.53;31.54
4705;BME280;2366;51.332;6.610;2023-02-28T12:10:11;102872.13;;;8.54;31.42
4705;BME280;2366;51.332;6.610;2023-02-28T12:13:01;102871.91;;;8.64;31.42
4705;BME280;2366;51.332;6.610;2023-02-28T12:15:56;102872.22;;;8.49;31.54
4705;BME280;2366;51.332;6.610;2023-02-28T12:18:35;102868.31;;;8.19;31.85
4705;BME280;2366;51.332;6.610;2023-02-28T12:21:05;102869.03;;;8.29;31.78
4705;BME280;2366;51.332;6.610;2023-02-28T12:26:37;102864.75;;;8.21;31.94
4705;BME280;2366;51.332;6.610;2023-02-28T12:31:36;102856.66;;;8.31;31.52
4705;BME280;2366;51.332;6.610;2023-02-28T12:34:12;102851.06;;;8.48;31.76
4705;BME280;2366;51.332;6.610;2023-02-28T12:36:39;102850.00;;;8.59;31.72
4705;BME280;2366;51.332;6.610;2023-02-28T12:39:26;102845.47;;;8.64;31.43
4705;BME280;2366;51.332;6.610;2023-02-28T12:41:54;102848.66;;;8.34;31.57
4705;BME280;2366;51.332;6.610;2023-02-28T12:44:32;102849.69;;;8.27;31.73
4705;BME280;2366;51.332;6.610;2023-02-28T12:47:02;102850.50;;;8.30;31.85
4705;BME280;2366;51.332;6.610;2023-02-28T12:49:36;102838.19;;;8.29;31.42
4705;BME280;2366;51.332;6.610;2023-02-28T12:52:03;102840.06;;;8.22;31.83
4705;BME280;2366;51.332;6.610;2023-02-28T12:55:03;102836.44;;;8.28;31.31
4705;BME280;2366;51.332;6.610;2023-02-28T13:00:12;102828.44;;;8.33;32.35
4705;BME280;2366;51.332;6.610;2023-02-28T13:10:46;102817.53;;;8.51;31.20
4705;BME280;2366;51.332;6.610;2023-02-28T13:13:18;102815.63;;;8.59;31.55
4705;BME280;2366;51.332;6.610;2023-02-28T13:16:04;102817.25;;;8.65;31.82
4705;BME280;2366;51.332;6.610;2023-02-28T13:18:44;102796.16;;;8.63;31.74
4705;BME280;2366;51.332;6.610;2023-02-28T13:21:30;102801.03;;;8.82;31.49
4705;BME280;2366;51.332;6.610;2023-02-28T13:23:59;102808.31;;;8.72;31.99
4705;BME280;2366;51.332;6.610;2023-02-28T13:29:02;102804.50;;;8.42;31.97
4705;BME280;2366;51.332;6.610;2023-02-28T13:31:29;102803.44;;;8.52;32.38
4705;BME280;2366;51.332;6.610;2023-02-28T13:38:55;102785.59;;;8.60;31.74
4705;BME280;2366;51.332;6.610;2023-02-28T13:46:24;102776.47;;;8.77;31.73
4705;BME280;2366;51.332;6.610;2023-02-28T13:48:49;102787.78;;;8.83;31.87
4705;BME280;2366;51.332;6.610;2023-02-28T14:02:17;102780.78;;;8.81;32.13
4705;BME280;2366;51.332;6.610;2023-02-28T14:07:28;102773.50;;;8.91;32.30
4705;BME280;2366;51.332;6.610;2023-02-28T14:10:00;102767.16;;;8.99;32.48
4705;BME280;2366;51.332;6.610;2023-02-28T14:18:01;102763.91;;;8.87;32.08
4705;BME280;2366;51.332;6.610;2023-02-28T14:20:31;102760.66;;;8.74;31.94
4705;BME280;2366;51.332;6.610;2023-02-28T14:23:16;102759.41;;;8.90;32.52
4705;BME280;2366;51.332;6.610;2023-02-28T14:31:03;102764.97;;;8.78;32.69
4705;BME280;2366;51.332;6.610;2023-02-28T14:36:35;102748.72;;;8.96;32.43
4705;BME280;2366;51.332;6.610;2023-02-28T14:39:07;102756.50;;;9.02;32.84
4705;BME280;2366;51.332;6.610;2023-02-28T14:41:35;102752.91;;;9.07;33.07
4705;BME280;2366;51.332;6.610;2023-02-28T14:44:53;102752.81;;;9.10;32.93
4705;BME280;2366;51.332;6.610;2023-02-28T14:47:04;102752.97;;;9.02;32.93
4705;BME280;2366;51.332;6.610;2023-02-28T14:49:43;102760.84;;;9.05;33.10
4705;BME280;2366;51.332;6.610;2023-02-28T14:52:23;102747.66;;;9.03;33.22
4705;BME280;2366;51.332;6.610;2023-02-28T14:54:54;102744.88;;;9.10;32.49
4705;BME280;2366;51.332;6.610;2023-02-28T14:57:41;102751.16;;;9.04;32.81
4705;BME280;2366;51.332;6.610;2023-02-28T15:00:27;102738.97;;;8.98;32.96
4705;BME280;2366;51.332;6.610;2023-02-28T15:02:55;102750.50;;;8.96;33.28
4705;BME280;2366;51.332;6.610;2023-02-28T15:05:31;102752.34;;;8.91;33.12
4705;BME280;2366;51.332;6.610;2023-02-28T15:08:16;102737.34;;;8.91;33.02
4705;BME280;2366;51.332;6.610;2023-02-28T15:10:44;102736.53;;;8.89;33.29
4705;BME280;2366;51.332;6.610;2023-02-28T15:13:12;102735.50;;;8.95;33.24
4705;BME280;2366;51.332;6.610;2023-02-28T15:18:30;102736.22;;;9.01;34.57
4705;BME280;2366;51.332;6.610;2023-02-28T15:20:59;102726.38;;;9.08;34.80
4705;BME280;2366;51.332;6.610;2023-02-28T15:23:28;102737.09;;;9.02;34.64
4705;BME280;2366;51.332;6.610;2023-02-28T15:25:54;102733.09;;;8.84;34.49